SBOSBO IAD / KIAD
Speedbird OnlineSpeedbird Online IAD / KIAD

Washington Dulles International Airport
07:11 22.2°C

Location Washington, United States
Latitude: 38.94449997
Longitude: -77.45580292
Altitude 95 Meter / 312 Feet
Distance 5,938 KM / 3,690 Miles
from London.
Time Zone UTC -4 hours (America/New_York)
Codes IATA: IAD
ICAO: KIAD
Currency £1 equals USD 1.23
METAR KIAD 271052Z 20005KT 10SM OVC008 23/21 A2997 RMK AO2 SLP147 T02280206
TAF KIAD 270915Z 2709/2812 20007KT P6SM FEW050 BKN160 FM271200 23004KT P6SM -SHRA OVC030 FM271600 31009KT P6SM BKN070
Weather As Of 27 Jun 2022 07:11
Description Overcast clouds
Wind 13 km/h from South (190°)
Cloud Cover 100%
Precipitation Rain: none, Snow: none
Sunrise 05:46
Sunset 20:39
Lounges British Airways Lounge (Open), Concourse B
Turkish Airlines Lounge , Terminal B
Rotations During the last 90 days there were
163 flights from LHR
2 flights from LGW
1 flights from BOS
161 flights to LHR
1 flights to ATL
1 flights to MIA


© 2017-2022 Speedbird Online